sensor_id;sensor_type;location;lat;lon;timestamp;pressure;altitude;pressure_sealevel;temperature;humidity
73453;BME280;61687;56.232;43.854;2022-07-29T00:00:58;100497.69;;;21.33;63.24
73453;BME280;61687;56.232;43.854;2022-07-29T00:03:24;100483.03;;;21.29;63.38
73453;BME280;61687;56.232;43.854;2022-07-29T00:05:50;100487.84;;;21.28;63.17
73453;BME280;61687;56.232;43.854;2022-07-29T00:08:19;100483.84;;;21.29;63.63
73453;BME280;61687;56.232;43.854;2022-07-29T00:10:44;100491.75;;;21.31;63.75
73453;BME280;61687;56.232;43.854;2022-07-29T00:13:10;100489.75;;;21.32;63.76
73453;BME280;61687;56.232;43.854;2022-07-29T00:15:36;100498.56;;;21.30;63.25
73453;BME280;61687;56.232;43.854;2022-07-29T00:18:02;100505.47;;;21.25;63.58
73453;BME280;61687;56.232;43.854;2022-07-29T00:20:28;100510.69;;;21.23;62.88
73453;BME280;61687;56.232;43.854;2022-07-29T00:22:54;100502.16;;;21.14;62.63
73453;BME280;61687;56.232;43.854;2022-07-29T00:25:20;100499.44;;;21.10;63.37
73453;BME280;61687;56.232;43.854;2022-07-29T00:27:46;100493.53;;;21.08;63.77
73453;BME280;61687;56.232;43.854;2022-07-29T00:30:12;100478.56;;;21.02;63.81
73453;BME280;61687;56.232;43.854;2022-07-29T00:32:38;100476.19;;;21.00;63.76
73453;BME280;61687;56.232;43.854;2022-07-29T00:35:05;100469.50;;;20.98;64.25
73453;BME280;61687;56.232;43.854;2022-07-29T00:37:49;100470.03;;;20.93;64.36
73453;BME280;61687;56.232;43.854;2022-07-29T00:40:15;100464.19;;;20.87;64.18
73453;BME280;61687;56.232;43.854;2022-07-29T00:42:51;100465.53;;;20.79;64.25
73453;BME280;61687;56.232;43.854;2022-07-29T00:45:17;100461.38;;;20.70;64.69
73453;BME280;61687;56.232;43.854;2022-07-29T00:47:44;100462.31;;;20.64;64.40
73453;BME280;61687;56.232;43.854;2022-07-29T00:50:12;100476.25;;;20.64;65.23
73453;BME280;61687;56.232;43.854;2022-07-29T00:52:39;100479.38;;;20.66;65.79
73453;BME280;61687;56.232;43.854;2022-07-29T00:55:07;100468.25;;;20.66;65.61
73453;BME280;61687;56.232;43.854;2022-07-29T00:57:34;100462.31;;;20.64;66.00
73453;BME280;61687;56.232;43.854;2022-07-29T01:00:01;100467.19;;;20.59;66.30
73453;BME280;61687;56.232;43.854;2022-07-29T01:02:29;100473.28;;;20.54;66.25
73453;BME280;61687;56.232;43.854;2022-07-29T01:04:55;100467.44;;;20.49;66.23
73453;BME280;61687;56.232;43.854;2022-07-29T01:07:24;100466.06;;;20.40;66.12
73453;BME280;61687;56.232;43.854;2022-07-29T01:09:51;100467.34;;;20.36;66.73
73453;BME280;61687;56.232;43.854;2022-07-29T01:12:25;100456.22;;;20.36;66.40
73453;BME280;61687;56.232;43.854;2022-07-29T01:14:52;100460.97;;;20.35;66.76
73453;BME280;61687;56.232;43.854;2022-07-29T01:22:35;100479.16;;;20.40;65.98
73453;BME280;61687;56.232;43.854;2022-07-29T01:25:10;100475.78;;;20.49;65.38
73453;BME280;61687;56.232;43.854;2022-07-29T01:27:47;100469.28;;;20.55;65.74
73453;BME280;61687;56.232;43.854;2022-07-29T01:30:17;100474.34;;;20.61;65.33
73453;BME280;61687;56.232;43.854;2022-07-29T01:32:46;100476.25;;;20.64;65.35
73453;BME280;61687;56.232;43.854;2022-07-29T01:35:23;100478.97;;;20.67;65.32
73453;BME280;61687;56.232;43.854;2022-07-29T01:37:59;100467.38;;;20.69;65.42
73453;BME280;61687;56.232;43.854;2022-07-29T01:40:47;100471.28;;;20.71;65.55
73453;BME280;61687;56.232;43.854;2022-07-29T01:43:31;100491.06;;;20.77;65.21
73453;BME280;61687;56.232;43.854;2022-07-29T01:46:04;100476.63;;;20.82;64.44
73453;BME280;61687;56.232;43.854;2022-07-29T01:48:47;100473.66;;;20.90;63.94
73453;BME280;61687;56.232;43.854;2022-07-29T01:51:18;100473.06;;;20.98;65.15
73453;BME280;61687;56.232;43.854;2022-07-29T01:53:51;100476.03;;;21.08;64.80
73453;BME280;61687;56.232;43.854;2022-07-29T01:56:23;100476.72;;;21.12;63.52
73453;BME280;61687;56.232;43.854;2022-07-29T01:58:51;100457.91;;;21.16;63.46
73453;BME280;61687;56.232;43.854;2022-07-29T02:01:19;100457.38;;;21.21;64.31
73453;BME280;61687;56.232;43.854;2022-07-29T02:03:46;100452.50;;;21.25;64.29
73453;BME280;61687;56.232;43.854;2022-07-29T02:06:17;100453.19;;;21.29;64.21
73453;BME280;61687;56.232;43.854;2022-07-29T02:08:45;100461.88;;;21.32;64.23
73453;BME280;61687;56.232;43.854;2022-07-29T02:11:13;100462.22;;;21.34;63.84
73453;BME280;61687;56.232;43.854;2022-07-29T02:13:39;100458.69;;;21.33;63.57
73453;BME280;61687;56.232;43.854;2022-07-29T02:16:07;100463.44;;;21.33;64.17
73453;BME280;61687;56.232;43.854;2022-07-29T02:18:37;100470.16;;;21.35;63.81
73453;BME280;61687;56.232;43.854;2022-07-29T02:21:05;100464.94;;;21.37;63.89
73453;BME280;61687;56.232;43.854;2022-07-29T02:23:32;100463.25;;;21.40;63.64
73453;BME280;61687;56.232;43.854;2022-07-29T02:26:00;100466.84;;;21.40;63.61
73453;BME280;61687;56.232;43.854;2022-07-29T02:28:28;100463.16;;;21.43;63.96
73453;BME280;61687;56.232;43.854;2022-07-29T02:31:00;100470.72;;;21.43;63.97
73453;BME280;61687;56.232;43.854;2022-07-29T02:33:27;100465.53;;;21.45;63.46
73453;BME280;61687;56.232;43.854;2022-07-29T02:35:56;100465.06;;;21.47;63.52
73453;BME280;61687;56.232;43.854;2022-07-29T02:38:25;100476.91;;;21.51;63.55
73453;BME280;61687;56.232;43.854;2022-07-29T02:41:15;100465.31;;;21.52;63.40
73453;BME280;61687;56.232;43.854;2022-07-29T02:43:42;100463.66;;;21.55;63.50
73453;BME280;61687;56.232;43.854;2022-07-29T02:46:14;100468.38;;;21.58;63.49
73453;BME280;61687;56.232;43.854;2022-07-29T02:52:00;100456.97;;;21.82;63.08
73453;BME280;61687;56.232;43.854;2022-07-29T02:54:46;100451.41;;;21.95;62.69
73453;BME280;61687;56.232;43.854;2022-07-29T02:57:20;100452.00;;;22.02;62.54
73453;BME280;61687;56.232;43.854;2022-07-29T02:59:50;100447.50;;;22.05;62.66
73453;BME280;61687;56.232;43.854;2022-07-29T03:02:17;100460.47;;;22.12;62.78
73453;BME280;61687;56.232;43.854;2022-07-29T03:04:44;100457.13;;;22.17;62.72
73453;BME280;61687;56.232;43.854;2022-07-29T03:07:14;100459.06;;;22.20;62.96
73453;BME280;61687;56.232;43.854;2022-07-29T03:09:42;100457.94;;;22.30;63.00
73453;BME280;61687;56.232;43.854;2022-07-29T03:12:10;100460.41;;;22.41;62.51
73453;BME280;61687;56.232;43.854;2022-07-29T03:14:37;100465.00;;;22.48;62.35
73453;BME280;61687;56.232;43.854;2022-07-29T03:17:04;100463.34;;;22.51;62.68
73453;BME280;61687;56.232;43.854;2022-07-29T03:19:31;100460.09;;;22.52;62.24
73453;BME280;61687;56.232;43.854;2022-07-29T03:21:58;100455.16;;;22.56;62.55
73453;BME280;61687;56.232;43.854;2022-07-29T03:24:35;100459.84;;;22.59;62.48
73453;BME280;61687;56.232;43.854;2022-07-29T03:27:01;100463.34;;;22.64;62.63
73453;BME280;61687;56.232;43.854;2022-07-29T03:29:28;100453.25;;;22.66;62.63
73453;BME280;61687;56.232;43.854;2022-07-29T03:31:54;100466.22;;;22.73;62.88
73453;BME280;61687;56.232;43.854;2022-07-29T03:34:20;100468.78;;;22.80;62.72
73453;BME280;61687;56.232;43.854;2022-07-29T03:36:46;100464.22;;;22.86;62.92
73453;BME280;61687;56.232;43.854;2022-07-29T03:39:17;100467.22;;;22.92;62.66
73453;BME280;61687;56.232;43.854;2022-07-29T03:41:45;100465.75;;;23.00;62.71
73453;BME280;61687;56.232;43.854;2022-07-29T03:44:14;100457.25;;;23.04;62.56
73453;BME280;61687;56.232;43.854;2022-07-29T03:46:43;100460.38;;;23.06;62.44
73453;BME280;61687;56.232;43.854;2022-07-29T03:49:10;100454.44;;;23.04;62.54
73453;BME280;61687;56.232;43.854;2022-07-29T03:51:38;100445.06;;;22.98;62.70
73453;BME280;61687;56.232;43.854;2022-07-29T03:54:04;100450.44;;;22.92;63.03
73453;BME280;61687;56.232;43.854;2022-07-29T03:56:32;100449.34;;;22.90;62.90
73453;BME280;61687;56.232;43.854;2022-07-29T03:59:01;100448.53;;;22.89;63.53
73453;BME280;61687;56.232;43.854;2022-07-29T04:01:28;100453.56;;;22.94;63.48
73453;BME280;61687;56.232;43.854;2022-07-29T04:03:55;100447.53;;;22.96;63.18
73453;BME280;61687;56.232;43.854;2022-07-29T04:06:22;100450.53;;;23.01;62.96
73453;BME280;61687;56.232;43.854;2022-07-29T04:08:48;100457.91;;;23.08;62.16
73453;BME280;61687;56.232;43.854;2022-07-29T04:11:14;100458.88;;;23.14;62.19
73453;BME280;61687;56.232;43.854;2022-07-29T04:13:40;100464.59;;;23.11;62.31
73453;BME280;61687;56.232;43.854;2022-07-29T04:16:05;100460.44;;;23.15;62.75
73453;BME280;61687;56.232;43.854;2022-07-29T04:18:31;100460.44;;;23.28;62.15
73453;BME280;61687;56.232;43.854;2022-07-29T04:20:57;100450.44;;;23.40;61.71
73453;BME280;61687;56.232;43.854;2022-07-29T04:23:27;100460.47;;;23.51;61.46
73453;BME280;61687;56.232;43.854;2022-07-29T04:25:53;100455.56;;;23.64;61.70
73453;BME280;61687;56.232;43.854;2022-07-29T04:28:19;100459.09;;;23.78;61.63
73453;BME280;61687;56.232;43.854;2022-07-29T04:30:44;100446.06;;;23.84;61.39
73453;BME280;61687;56.232;43.854;2022-07-29T04:33:10;100450.75;;;23.87;61.32
73453;BME280;61687;56.232;43.854;2022-07-29T04:35:37;100445.75;;;23.82;61.71
73453;BME280;61687;56.232;43.854;2022-07-29T04:38:05;100435.34;;;23.82;62.28
73453;BME280;61687;56.232;43.854;2022-07-29T04:40:31;100440.84;;;23.95;61.83
73453;BME280;61687;56.232;43.854;2022-07-29T04:42:59;100447.34;;;24.14;60.83
73453;BME280;61687;56.232;43.854;2022-07-29T04:45:27;100450.75;;;24.41;60.62
73453;BME280;61687;56.232;43.854;2022-07-29T04:47:53;100452.25;;;24.73;59.43
73453;BME280;61687;56.232;43.854;2022-07-29T04:50:19;100457.91;;;24.92;59.32
73453;BME280;61687;56.232;43.854;2022-07-29T04:52:45;100462.44;;;24.99;58.95
73453;BME280;61687;56.232;43.854;2022-07-29T04:55:10;100469.44;;;24.85;59.84
73453;BME280;61687;56.232;43.854;2022-07-29T04:57:36;100477.47;;;24.73;60.56
73453;BME280;61687;56.232;43.854;2022-07-29T05:00:04;100471.66;;;24.58;61.70
73453;BME280;61687;56.232;43.854;2022-07-29T05:02:30;100485.47;;;24.43;62.30
73453;BME280;61687;56.232;43.854;2022-07-29T05:04:56;100502.63;;;24.23;64.04
73453;BME280;61687;56.232;43.854;2022-07-29T05:07:22;100506.16;;;23.92;65.94
73453;BME280;61687;56.232;43.854;2022-07-29T05:09:48;100496.28;;;23.43;68.28
73453;BME280;61687;56.232;43.854;2022-07-29T05:12:14;100504.41;;;23.02;70.28
73453;BME280;61687;56.232;43.854;2022-07-29T05:14:40;100512.94;;;22.72;71.09
73453;BME280;61687;56.232;43.854;2022-07-29T05:17:06;100505.06;;;22.41;72.61
73453;BME280;61687;56.232;43.854;2022-07-29T05:19:32;100498.00;;;22.11;73.61
73453;BME280;61687;56.232;43.854;2022-07-29T05:21:58;100494.50;;;21.94;74.53
73453;BME280;61687;56.232;43.854;2022-07-29T05:24:25;100519.03;;;21.86;75.50
73453;BME280;61687;56.232;43.854;2022-07-29T05:26:51;100519.56;;;21.81;76.09
73453;BME280;61687;56.232;43.854;2022-07-29T05:29:17;100520.63;;;21.70;76.53
73453;BME280;61687;56.232;43.854;2022-07-29T05:31:43;100509.75;;;21.59;76.50
73453;BME280;61687;56.232;43.854;2022-07-29T05:34:09;100513.44;;;21.40;77.80
73453;BME280;61687;56.232;43.854;2022-07-29T05:36:35;100514.94;;;21.28;77.98
73453;BME280;61687;56.232;43.854;2022-07-29T05:39:01;100510.78;;;21.20;78.30
73453;BME280;61687;56.232;43.854;2022-07-29T05:41:27;100511.19;;;21.18;77.28
73453;BME280;61687;56.232;43.854;2022-07-29T05:43:53;100517.47;;;21.22;76.85
73453;BME280;61687;56.232;43.854;2022-07-29T05:46:18;100501.34;;;21.30;76.46
73453;BME280;61687;56.232;43.854;2022-07-29T05:48:45;100510.91;;;21.45;76.23
73453;BME280;61687;56.232;43.854;2022-07-29T05:51:10;100519.78;;;21.57;76.20
73453;BME280;61687;56.232;43.854;2022-07-29T05:53:36;100520.63;;;21.70;76.02
73453;BME280;61687;56.232;43.854;2022-07-29T05:56:03;100524.59;;;21.86;75.77
73453;BME280;61687;56.232;43.854;2022-07-29T05:58:30;100520.06;;;22.05;75.71
73453;BME280;61687;56.232;43.854;2022-07-29T06:00:56;100532.75;;;22.23;75.42
73453;BME280;61687;56.232;43.854;2022-07-29T06:03:26;100528.06;;;22.33;75.52
73453;BME280;61687;56.232;43.854;2022-07-29T06:05:52;100528.22;;;22.42;75.14
73453;BME280;61687;56.232;43.854;2022-07-29T06:08:19;100520.75;;;22.52;75.12
73453;BME280;61687;56.232;43.854;2022-07-29T06:10:45;100525.22;;;22.62;75.00
73453;BME280;61687;56.232;43.854;2022-07-29T06:13:12;100524.56;;;22.71;74.72
73453;BME280;61687;56.232;43.854;2022-07-29T06:15:38;100527.91;;;22.79;74.59
73453;BME280;61687;56.232;43.854;2022-07-29T06:18:04;100538.53;;;22.84;74.47
73453;BME280;61687;56.232;43.854;2022-07-29T06:20:33;100545.56;;;22.89;74.58
73453;BME280;61687;56.232;43.854;2022-07-29T06:22:59;100553.06;;;22.92;74.53
73453;BME280;61687;56.232;43.854;2022-07-29T06:25:25;100549.03;;;22.93;74.59
73453;BME280;61687;56.232;43.854;2022-07-29T06:27:51;100541.44;;;22.93;74.85
73453;BME280;61687;56.232;43.854;2022-07-29T06:30:17;100545.91;;;22.91;74.95
73453;BME280;61687;56.232;43.854;2022-07-29T06:32:43;100532.50;;;22.85;75.19
73453;BME280;61687;56.232;43.854;2022-07-29T06:35:09;100534.28;;;22.79;75.25
73453;BME280;61687;56.232;43.854;2022-07-29T06:37:35;100527.78;;;22.69;75.58
73453;BME280;61687;56.232;43.854;2022-07-29T06:40:01;100522.44;;;22.62;75.54
73453;BME280;61687;56.232;43.854;2022-07-29T06:42:47;100526.22;;;22.55;75.66
73453;BME280;61687;56.232;43.854;2022-07-29T06:45:13;100514.47;;;22.48;75.53
73453;BME280;61687;56.232;43.854;2022-07-29T06:47:39;100519.59;;;22.36;75.78
73453;BME280;61687;56.232;43.854;2022-07-29T06:50:05;100517.47;;;22.27;76.31
73453;BME280;61687;56.232;43.854;2022-07-29T06:52:31;100533.19;;;22.21;76.28
73453;BME280;61687;56.232;43.854;2022-07-29T06:54:57;100534.63;;;22.13;76.66
73453;BME280;61687;56.232;43.854;2022-07-29T06:57:24;100531.25;;;22.05;77.08
73453;BME280;61687;56.232;43.854;2022-07-29T06:59:50;100546.09;;;22.02;77.08
73453;BME280;61687;56.232;43.854;2022-07-29T07:02:16;100553.34;;;21.99;77.32
73453;BME280;61687;56.232;43.854;2022-07-29T07:04:42;100543.03;;;21.96;77.57
73453;BME280;61687;56.232;43.854;2022-07-29T07:07:08;100547.19;;;21.92;77.61
73453;BME280;61687;56.232;43.854;2022-07-29T07:09:34;100549.72;;;21.86;77.70
73453;BME280;61687;56.232;43.854;2022-07-29T07:11:59;100552.16;;;21.84;77.81
73453;BME280;61687;56.232;43.854;2022-07-29T07:14:25;100560.53;;;21.84;77.75
73453;BME280;61687;56.232;43.854;2022-07-29T07:16:52;100557.75;;;21.84;77.80
73453;BME280;61687;56.232;43.854;2022-07-29T07:19:18;100564.53;;;21.83;77.87
73453;BME280;61687;56.232;43.854;2022-07-29T07:21:44;100560.75;;;21.77;77.95
73453;BME280;61687;56.232;43.854;2022-07-29T07:24:10;100555.84;;;21.64;78.50
73453;BME280;61687;56.232;43.854;2022-07-29T07:26:36;100564.28;;;21.61;78.66
73453;BME280;61687;56.232;43.854;2022-07-29T07:29:03;100580.25;;;21.60;78.90
73453;BME280;61687;56.232;43.854;2022-07-29T07:31:29;100596.88;;;21.64;78.85
73453;BME280;61687;56.232;43.854;2022-07-29T07:33:55;100602.84;;;21.66;79.08
73453;BME280;61687;56.232;43.854;2022-07-29T07:36:21;100584.09;;;21.66;79.09
73453;BME280;61687;56.232;43.854;2022-07-29T07:38:47;100577.31;;;21.67;78.83
73453;BME280;61687;56.232;43.854;2022-07-29T07:41:13;100580.53;;;21.66;78.90
73453;BME280;61687;56.232;43.854;2022-07-29T07:43:39;100594.97;;;21.61;79.09
73453;BME280;61687;56.232;43.854;2022-07-29T07:46:05;100604.66;;;21.56;79.06
73453;BME280;61687;56.232;43.854;2022-07-29T07:48:31;100606.75;;;21.52;79.60
73453;BME280;61687;56.232;43.854;2022-07-29T07:50:57;100594.00;;;21.51;79.44
73453;BME280;61687;56.232;43.854;2022-07-29T07:53:23;100587.56;;;21.54;79.33
73453;BME280;61687;56.232;43.854;2022-07-29T07:55:49;100587.81;;;21.59;79.22
73453;BME280;61687;56.232;43.854;2022-07-29T07:58:15;100588.63;;;21.60;79.31
73453;BME280;61687;56.232;43.854;2022-07-29T08:00:41;100584.16;;;21.63;79.14
73453;BME280;61687;56.232;43.854;2022-07-29T08:03:07;100578.53;;;21.66;79.02
73453;BME280;61687;56.232;43.854;2022-07-29T08:05:33;100580.88;;;21.68;79.21
73453;BME280;61687;56.232;43.854;2022-07-29T08:08:01;100589.13;;;21.71;79.10
73453;BME280;61687;56.232;43.854;2022-07-29T08:10:27;100598.56;;;21.78;79.22
73453;BME280;61687;56.232;43.854;2022-07-29T08:13:12;100606.41;;;21.83;79.12
73453;BME280;61687;56.232;43.854;2022-07-29T08:15:38;100619.13;;;21.84;79.20
73453;BME280;61687;56.232;43.854;2022-07-29T08:18:05;100619.13;;;21.84;78.97
73453;BME280;61687;56.232;43.854;2022-07-29T08:20:31;100621.56;;;21.82;78.85
73453;BME280;61687;56.232;43.854;2022-07-29T08:22:59;100610.94;;;21.77;78.77
73453;BME280;61687;56.232;43.854;2022-07-29T08:25:25;100608.25;;;21.73;79.00
73453;BME280;61687;56.232;43.854;2022-07-29T08:27:50;100591.50;;;21.73;79.06
73453;BME280;61687;56.232;43.854;2022-07-29T08:30:16;100565.19;;;21.74;79.50
73453;BME280;61687;56.232;43.854;2022-07-29T08:32:42;100560.28;;;21.78;79.63
73453;BME280;61687;56.232;43.854;2022-07-29T08:35:08;100563.31;;;21.84;79.60
73453;BME280;61687;56.232;43.854;2022-07-29T08:37:34;100548.91;;;21.85;79.43
73453;BME280;61687;56.232;43.854;2022-07-29T08:40:00;100546.50;;;21.87;79.83
73453;BME280;61687;56.232;43.854;2022-07-29T08:42:26;100529.47;;;21.98;79.61
73453;BME280;61687;56.232;43.854;2022-07-29T08:44:53;100527.47;;;22.12;78.97
73453;BME280;61687;56.232;43.854;2022-07-29T08:47:19;100521.91;;;22.25;78.62
73453;BME280;61687;56.232;43.854;2022-07-29T08:49:45;100514.78;;;22.37;78.05
73453;BME280;61687;56.232;43.854;2022-07-29T08:52:14;100517.38;;;22.44;77.60
73453;BME280;61687;56.232;43.854;2022-07-29T08:54:43;100526.34;;;22.52;77.17
73453;BME280;61687;56.232;43.854;2022-07-29T08:57:13;100534.41;;;22.63;77.05
73453;BME280;61687;56.232;43.854;2022-07-29T08:59:40;100536.06;;;22.73;76.65
73453;BME280;61687;56.232;43.854;2022-07-29T09:02:18;100529.59;;;22.76;76.70
73453;BME280;61687;56.232;43.854;2022-07-29T09:04:45;100515.03;;;22.81;76.65
73453;BME280;61687;56.232;43.854;2022-07-29T09:07:14;100505.31;;;22.86;76.55
73453;BME280;61687;56.232;43.854;2022-07-29T09:09:41;100510.81;;;22.90;76.17
73453;BME280;61687;56.232;43.854;2022-07-29T09:12:09;100506.88;;;22.87;75.83
73453;BME280;61687;56.232;43.854;2022-07-29T09:14:38;100523.53;;;22.91;75.51
73453;BME280;61687;56.232;43.854;2022-07-29T09:17:04;100525.56;;;23.03;75.26
73453;BME280;61687;56.232;43.854;2022-07-29T09:19:33;100539.03;;;23.18;75.09
73453;BME280;61687;56.232;43.854;2022-07-29T09:22:06;100549.78;;;23.32;74.61
73453;BME280;61687;56.232;43.854;2022-07-29T09:24:40;100552.63;;;23.54;74.47
73453;BME280;61687;56.232;43.854;2022-07-29T09:27:11;100552.25;;;23.65;73.56
73453;BME280;61687;56.232;43.854;2022-07-29T09:29:40;100556.19;;;23.68;72.99
73453;BME280;61687;56.232;43.854;2022-07-29T09:32:09;100558.84;;;23.71;73.13
73453;BME280;61687;56.232;43.854;2022-07-29T09:34:36;100564.69;;;23.64;72.95
73453;BME280;61687;56.232;43.854;2022-07-29T09:37:02;100571.66;;;23.60;72.04
73453;BME280;61687;56.232;43.854;2022-07-29T09:42:03;100595.75;;;23.44;73.27
73453;BME280;61687;56.232;43.854;2022-07-29T09:44:49;100594.72;;;23.51;73.89
73453;BME280;61687;56.232;43.854;2022-07-29T09:47:17;100591.34;;;23.56;74.31
73453;BME280;61687;56.232;43.854;2022-07-29T09:49:54;100578.28;;;23.53;73.88
73453;BME280;61687;56.232;43.854;2022-07-29T09:52:20;100583.31;;;23.45;73.60
73453;BME280;61687;56.232;43.854;2022-07-29T09:54:47;100582.53;;;23.44;73.67
73453;BME280;61687;56.232;43.854;2022-07-29T09:57:25;100588.47;;;23.47;74.08
73453;BME280;61687;56.232;43.854;2022-07-29T10:00:04;100591.38;;;23.43;73.66
73453;BME280;61687;56.232;43.854;2022-07-29T10:02:41;100588.38;;;23.37;73.83
73453;BME280;61687;56.232;43.854;2022-07-29T10:05:21;100592.06;;;23.34;74.37
73453;BME280;61687;56.232;43.854;2022-07-29T10:07:53;100590.94;;;23.32;74.89
73453;BME280;61687;56.232;43.854;2022-07-29T10:10:25;100585.94;;;23.26;75.13
73453;BME280;61687;56.232;43.854;2022-07-29T10:15:21;100593.63;;;23.09;75.81
73453;BME280;61687;56.232;43.854;2022-07-29T10:17:48;100596.53;;;23.06;75.24
73453;BME280;61687;56.232;43.854;2022-07-29T10:20:15;100602.69;;;23.00;75.54
73453;BME280;61687;56.232;43.854;2022-07-29T10:22:41;100607.63;;;22.96;75.62
73453;BME280;61687;56.232;43.854;2022-07-29T10:25:08;100619.69;;;22.93;75.60
73453;BME280;61687;56.232;43.854;2022-07-29T10:27:35;100617.66;;;22.94;76.01
73453;BME280;61687;56.232;43.854;2022-07-29T10:30:03;100633.19;;;22.95;76.04
73453;BME280;61687;56.232;43.854;2022-07-29T10:38:43;100642.59;;;22.88;76.53
73453;BME280;61687;56.232;43.854;2022-07-29T10:41:21;100640.25;;;22.86;76.84
73453;BME280;61687;56.232;43.854;2022-07-29T10:46:27;100648.81;;;22.79;77.15
73453;BME280;61687;56.232;43.854;2022-07-29T10:49:13;100659.22;;;22.79;77.19
73453;BME280;61687;56.232;43.854;2022-07-29T10:57:29;100660.22;;;22.72;77.38
73453;BME280;61687;56.232;43.854;2022-07-29T11:05:18;100654.19;;;22.73;77.54
73453;BME280;61687;56.232;43.854;2022-07-29T11:10:38;100637.44;;;22.73;77.63
73453;BME280;61687;56.232;43.854;2022-07-29T11:13:04;100634.19;;;22.75;77.81
73453;BME280;61687;56.232;43.854;2022-07-29T11:15:52;100635.75;;;22.76;77.69
73453;BME280;61687;56.232;43.854;2022-07-29T11:18:19;100637.22;;;22.81;77.72
73453;BME280;61687;56.232;43.854;2022-07-29T11:20:51;100626.72;;;22.85;77.27
73453;BME280;61687;56.232;43.854;2022-07-29T11:23:34;100636.22;;;22.87;77.17
73453;BME280;61687;56.232;43.854;2022-07-29T11:29:03;100651.66;;;22.92;76.84
73453;BME280;61687;56.232;43.854;2022-07-29T11:31:45;100658.34;;;22.95;76.98
73453;BME280;61687;56.232;43.854;2022-07-29T11:34:28;100659.91;;;22.96;77.09
73453;BME280;61687;56.232;43.854;2022-07-29T11:44:58;100639.13;;;22.97;76.97
73453;BME280;61687;56.232;43.854;2022-07-29T11:47:30;100635.66;;;22.93;77.11
73453;BME280;61687;56.232;43.854;2022-07-29T11:49:58;100636.56;;;22.90;77.08
73453;BME280;61687;56.232;43.854;2022-07-29T11:52:32;100634.19;;;22.88;77.35
73453;BME280;61687;56.232;43.854;2022-07-29T11:55:01;100637.78;;;22.89;77.01
73453;BME280;61687;56.232;43.854;2022-07-29T11:57:29;100636.47;;;22.93;77.23
73453;BME280;61687;56.232;43.854;2022-07-29T11:59:57;100636.09;;;22.91;77.52
73453;BME280;61687;56.232;43.854;2022-07-29T12:02:23;100635.88;;;22.85;77.65
73453;BME280;61687;56.232;43.854;2022-07-29T12:04:55;100641.81;;;22.87;77.46
73453;BME280;61687;56.232;43.854;2022-07-29T12:07:28;100640.09;;;22.77;77.44
73453;BME280;61687;56.232;43.854;2022-07-29T12:09:55;100645.00;;;22.60;77.27
73453;BME280;61687;56.232;43.854;2022-07-29T12:12:22;100645.97;;;22.53;77.50
73453;BME280;61687;56.232;43.854;2022-07-29T12:14:48;100648.44;;;22.51;77.67
73453;BME280;61687;56.232;43.854;2022-07-29T12:17:33;100639.44;;;22.43;78.00
73453;BME280;61687;56.232;43.854;2022-07-29T12:20:02;100637.44;;;22.44;78.24
73453;BME280;61687;56.232;43.854;2022-07-29T12:22:35;100637.94;;;22.55;78.33
73453;BME280;61687;56.232;43.854;2022-07-29T12:25:08;100629.56;;;22.55;77.71
73453;BME280;61687;56.232;43.854;2022-07-29T12:27:36;100626.59;;;22.63;77.71
73453;BME280;61687;56.232;43.854;2022-07-29T12:30:06;100620.78;;;22.70;77.92
73453;BME280;61687;56.232;43.854;2022-07-29T12:32:34;100621.69;;;22.80;77.65
73453;BME280;61687;56.232;43.854;2022-07-29T12:35:08;100623.69;;;22.79;77.70
73453;BME280;61687;56.232;43.854;2022-07-29T12:37:36;100620.44;;;22.81;76.72
73453;BME280;61687;56.232;43.854;2022-07-29T12:40:04;100629.63;;;22.94;76.59
73453;BME280;61687;56.232;43.854;2022-07-29T12:42:30;100626.50;;;23.18;76.21
73453;BME280;61687;56.232;43.854;2022-07-29T12:44:56;100617.31;;;23.43;75.94
73453;BME280;61687;56.232;43.854;2022-07-29T12:47:22;100614.16;;;23.67;75.08
73453;BME280;61687;56.232;43.854;2022-07-29T12:49:49;100608.28;;;23.87;73.95
73453;BME280;61687;56.232;43.854;2022-07-29T12:52:32;100606.78;;;24.09;73.72
73453;BME280;61687;56.232;43.854;2022-07-29T12:54:58;100604.88;;;24.28;73.80
73453;BME280;61687;56.232;43.854;2022-07-29T12:57:24;100609.03;;;24.46;73.40
73453;BME280;61687;56.232;43.854;2022-07-29T13:00:09;100610.00;;;24.52;71.76
73453;BME280;61687;56.232;43.854;2022-07-29T13:02:40;100601.78;;;24.57;72.04
73453;BME280;61687;56.232;43.854;2022-07-29T13:05:07;100608.22;;;24.67;72.20
73453;BME280;61687;56.232;43.854;2022-07-29T13:07:34;100606.72;;;24.76;70.49
73453;BME280;61687;56.232;43.854;2022-07-29T13:12:37;100613.44;;;24.78;70.54
73453;BME280;61687;56.232;43.854;2022-07-29T13:15:15;100621.38;;;24.80;70.81
73453;BME280;61687;56.232;43.854;2022-07-29T13:17:42;100617.66;;;24.83;71.36
73453;BME280;61687;56.232;43.854;2022-07-29T13:20:10;100622.22;;;24.90;71.29
73453;BME280;61687;56.232;43.854;2022-07-29T13:22:41;100615.88;;;24.98;71.07
73453;BME280;61687;56.232;43.854;2022-07-29T13:25:10;100623.50;;;24.98;70.20
73453;BME280;61687;56.232;43.854;2022-07-29T13:27:37;100613.22;;;24.95;69.94
73453;BME280;61687;56.232;43.854;2022-07-29T13:30:06;100616.47;;;24.93;70.25
73453;BME280;61687;56.232;43.854;2022-07-29T13:32:32;100606.19;;;24.90;70.28
73453;BME280;61687;56.232;43.854;2022-07-29T13:35:05;100624.25;;;24.89;70.46
73453;BME280;61687;56.232;43.854;2022-07-29T13:37:33;100631.09;;;24.88;70.45